X  Schließen METAR Luftfahrt Wetterdaten     EHKD De Kooy Airport
Temperatur
6°C Temperatur
1°C Taupunkt
71% Feuchtigkeit



Wind
12 MPS
19 KM/S
5 M/S
10 KTS



330°
NNW
Aktuelle Wetterlage

Teilweise bewölkt Teilweise bewölkt
Luftdruck 1010.84 (hPa) - 29.85 (inHg)
Sichtweite 6 (Meile) - 9.7 (Km)
Flughafen
Flughafen Code EHKD

Position : De Kooy Airport
Entfernung: 34 (mi)

Metar:
EHKD 240232Z AUTO 33010KT 280V020 9999 FEW023 SCT026 BKN032 06/01 Q1011 BLU

Zeit: 24-04-2024 04:32 CEST